Time;durP1;ratioP1;P1;durP2;ratioP2;P2;SDS_P1;SDS_P2;PMS_P1;PMS_P2;Temp;Humidity;BMP_temperature;BMP_pressure;BME280_temperature;BME280_humidity;BME280_pressure;Samples;Min_cycle;Max_cycle;Signal;HPM_P1;HPM_P2
2023/05/21 00:02:02;;;;;;;14.65;13.15;;;;;;;30.55;53.28;100829.34;5091033;27;65664;-47
2023/05/21 00:04:34;;;;;;;16.33;12.38;;;;;;;30.60;53.75;100815.16;5092907;27;69228;-42
2023/05/21 00:07:05;;;;;;;13.43;12.25;;;;;;;30.63;54.06;100815.53;5095681;27;65284;-41
2023/05/21 00:09:39;;;;;;;13.98;12.73;;;;;;;30.59;53.57;100808.06;5097380;27;69754;-41
2023/05/21 00:12:10;;;;;;;12.38;11.18;;;;;;;30.73;52.75;100826.72;5094282;27;65819;-42
2023/05/21 00:14:41;;;;;;;22.70;12.07;;;;;;;30.75;54.19;100839.19;5092337;27;69677;-41
2023/05/21 00:17:12;;;;;;;12.85;11.57;;;;;;;30.77;54.27;100848.75;5093127;27;65164;-42
2023/05/21 00:19:43;;;;;;;15.38;12.45;;;;;;;30.86;53.98;100852.06;5095516;27;70582;-41
2023/05/21 00:22:14;;;;;;;12.75;11.13;;;;;;;30.85;54.31;100845.81;5095181;27;66685;-42
2023/05/21 00:24:45;;;;;;;12.38;11.10;;;;;;;30.91;54.61;100844.94;5094126;27;69324;-42
2023/05/21 00:27:16;;;;;;;12.27;11.13;;;;;;;30.91;56.22;100854.94;5091006;27;65321;-40
2023/05/21 00:29:47;;;;;;;13.88;10.88;;;;;;;30.98;56.66;100850.31;5099267;27;70622;-41
2023/05/21 00:32:18;;;;;;;12.50;10.75;;;;;;;30.97;55.73;100832.38;5094094;27;65976;-40
2023/05/21 00:34:49;;;;;;;12.27;11.18;;;;;;;31.02;56.37;100839.84;5079311;27;70016;-41
2023/05/21 00:37:20;;;;;;;13.65;10.75;;;;;;;31.12;55.47;100845.56;5092210;27;67502;-42
2023/05/21 00:39:51;;;;;;;17.43;11.33;;;;;;;31.13;56.41;100853.50;5096743;27;70079;-41
2023/05/21 00:42:26;;;;;;;10.60;9.48;;;;;;;31.23;55.92;100857.56;5080396;27;66295;-40
2023/05/21 00:44:57;;;;;;;12.68;9.25;;;;;;;31.16;55.72;100850.31;5107576;27;70823;-41
2023/05/21 00:47:28;;;;;;;9.73;8.82;;;;;;;31.27;55.60;100853.38;5088941;27;66582;-41
2023/05/21 00:50:00;;;;;;;10.10;9.10;;;;;;;31.29;55.46;100862.13;5095927;27;70462;-41
2023/05/21 00:52:32;;;;;;;10.77;9.68;;;;;;;31.32;56.17;100867.91;5076868;27;66051;-41
2023/05/21 00:55:03;;;;;;;16.08;10.32;;;;;;;31.36;59.72;100854.75;5099316;27;70067;-40
2023/05/21 00:57:36;;;;;;;30.30;11.30;;;;;;;31.43;60.69;100858.25;5080070;27;66966;-41
2023/05/21 01:00:09;;;;;;;30.90;12.05;;;;;;;31.53;62.76;100869.38;5079164;27;70765;-42
2023/05/21 01:02:40;;;;;;;55.90;11.85;;;;;;;31.45;64.14;100858.81;5090626;27;66268;-38
2023/05/21 01:05:14;;;;;;;30.60;11.93;;;;;;;31.65;64.17;100866.75;5093834;27;70264;-39
2023/05/21 01:07:45;;;;;;;21.17;10.60;;;;;;;31.70;66.54;100863.34;5084799;27;65939;-39
2023/05/21 01:10:16;;;;;;;23.80;10.50;;;;;;;31.70;65.60;100860.63;5091009;27;70116;-39
2023/05/21 01:12:48;;;;;;;17.40;10.85;;;;;;;31.79;65.50;100857.41;5097486;27;66025;-39
2023/05/21 01:15:19;;;;;;;23.20;11.00;;;;;;;31.82;66.61;100861.56;5100779;27;69355;-39
2023/05/21 01:17:51;;;;;;;17.95;10.68;;;;;;;31.41;66.37;100778.19;5098109;27;66831;-40
2023/05/21 01:20:23;;;;;;;19.58;11.05;;;;;;;31.94;66.59;100854.31;5064355;27;69158;-44
2023/05/21 01:22:55;;;;;;;30.83;15.40;;;;;;;31.91;72.01;100865.63;5089497;27;66913;-43
2023/05/21 01:25:26;;;;;;;25.52;13.48;;;;;;;31.88;72.15;100848.97;5079729;27;70514;-43
2023/05/21 01:27:57;;;;;;;28.70;13.93;;;;;;;31.99;72.84;100868.03;5109103;27;65993;-43
2023/05/21 01:30:28;;;;;;;33.47;13.73;;;;;;;32.00;72.89;100853.41;5084721;27;70001;-42
2023/05/21 01:33:03;;;;;;;26.60;13.23;;;;;;;32.03;73.54;100858.38;5108700;27;66360;-42
2023/05/21 01:35:48;;;;;;;22.63;12.77;;;;;;;32.04;73.47;100862.75;5097934;27;70422;-45
2023/05/21 01:38:25;;;;;;;20.02;13.25;;;;;;;32.08;73.51;100859.59;5088009;27;66694;-43
2023/05/21 01:41:09;;;;;;;35.20;13.75;;;;;;;31.67;73.79;100793.31;5082288;27;69438;-42
2023/05/21 01:43:43;;;;;;;23.38;12.27;;;;;;;32.15;73.75;100852.16;5101333;27;65961;-42
2023/05/21 01:46:20;;;;;;;30.90;13.15;;;;;;;31.70;73.67;100782.81;5100374;27;69981;-41
2023/05/21 01:48:54;;;;;;;20.08;13.07;;;;;;;32.17;73.85;100863.63;5086325;27;66757;-42
2023/05/21 01:51:26;;;;;;;22.15;12.80;;;;;;;32.13;74.07;100857.03;5080884;27;69980;-43
2023/05/21 01:53:57;;;;;;;29.42;13.27;;;;;;;32.17;74.07;100880.75;5098572;27;65380;-43
2023/05/21 01:56:28;;;;;;;25.50;13.13;;;;;;;32.20;73.75;100864.00;5102965;27;69979;-43
2023/05/21 01:58:59;;;;;;;33.88;13.55;;;;;;;32.26;73.58;100867.66;5090054;27;66192;-43
2023/05/21 02:01:30;;;;;;;18.35;12.40;;;;;;;32.13;73.30;100846.16;5086685;27;69551;-42
2023/05/21 02:04:01;;;;;;;21.50;13.05;;;;;;;32.30;73.01;100874.31;5054283;27;66178;-43
2023/05/21 02:06:34;;;;;;;21.65;13.30;;;;;;;32.11;72.92;100837.41;5101786;27;70201;-43
2023/05/21 02:09:05;;;;;;;21.30;12.55;;;;;;;32.36;72.67;100875.28;5084914;27;65846;-42
2023/05/21 02:11:36;;;;;;;13.50;12.15;;;;;;;32.37;72.48;100885.88;5106738;27;71374;-43
2023/05/21 02:14:09;;;;;;;22.27;12.90;;;;;;;32.40;72.38;100874.59;5093352;27;65127;-42
2023/05/21 02:16:40;;;;;;;23.35;11.77;;;;;;;32.47;72.19;100879.94;5108169;27;70400;-43
2023/05/21 02:19:11;;;;;;;15.60;12.18;;;;;;;32.46;72.02;100883.72;5078875;27;66971;-42
2023/05/21 02:21:43;;;;;;;18.50;11.57;;;;;;;32.32;72.16;100858.63;5107775;27;68924;-43
2023/05/21 02:24:14;;;;;;;17.42;12.07;;;;;;;32.49;72.14;100881.38;5085719;27;66423;-44
2023/05/21 02:26:47;;;;;;;13.55;11.13;;;;;;;32.52;72.01;100892.84;5100647;27;70092;-43
2023/05/21 02:29:18;;;;;;;18.58;11.25;;;;;;;32.51;72.02;100885.72;5097419;27;66742;-41
2023/05/21 02:31:50;;;;;;;13.30;11.38;;;;;;;32.51;71.74;100885.72;5096995;27;69913;-44
2023/05/21 02:34:21;;;;;;;18.83;11.77;;;;;;;32.55;71.49;100895.09;5086536;27;65872;-43
2023/05/21 02:36:53;;;;;;;10.30;9.20;;;;;;;32.62;70.22;100895.81;5072826;27;70268;-41
2023/05/21 02:39:25;;;;;;;8.50;7.70;;;;;;;32.64;69.70;100890.97;5094589;27;66652;-43
2023/05/21 02:41:57;;;;;;;8.82;8.13;;;;;;;32.60;69.03;100863.47;5101720;27;70180;-43
2023/05/21 02:44:28;;;;;;;8.52;7.60;;;;;;;32.78;69.26;100903.28;5098164;27;66422;-42
2023/05/21 02:46:59;;;;;;;7.97;7.47;;;;;;;32.82;68.41;100899.06;5097065;27;69638;-42
2023/05/21 02:49:30;;;;;;;7.93;7.20;;;;;;;32.85;68.50;100920.31;5088160;27;65360;-42
2023/05/21 02:52:01;;;;;;;8.87;7.20;;;;;;;32.89;68.48;100910.63;5110458;27;70239;-42
2023/05/21 02:54:32;;;;;;;8.40;7.80;;;;;;;32.92;68.18;100903.91;5104308;27;65812;-43
2023/05/21 02:57:03;;;;;;;8.73;7.87;;;;;;;32.97;68.14;100911.38;5107857;27;70400;-41
2023/05/21 02:59:34;;;;;;;10.93;8.23;;;;;;;32.99;68.08;100899.22;5102579;27;66193;-42
2023/05/21 03:02:06;;;;;;;8.67;7.97;;;;;;;32.91;67.79;100875.09;5091481;27;69819;-42
2023/05/21 03:04:44;;;;;;;;;;;;;;;32.82;68.85;100899.06;5099915;27;66206;-42
2023/05/21 03:07:17;;;;;;;8.73;7.45;;;;;;;33.09;67.48;100893.19;5079972;27;69222;-43
2023/05/21 03:09:48;;;;;;;8.63;7.57;;;;;;;33.13;67.18;100895.22;5085150;27;65718;-42
2023/05/21 03:12:20;;;;;;;8.68;7.97;;;;;;;33.15;67.38;100892.25;5098508;27;70872;-41
2023/05/21 03:14:50;;;;;;;11.27;7.65;;;;;;;33.15;67.13;100881.38;5098952;27;66740;-42
2023/05/21 03:17:22;;;;;;;9.57;7.85;;;;;;;33.20;66.89;100889.66;5111109;27;71115;-42
2023/05/21 03:19:53;;;;;;;8.23;7.43;;;;;;;33.17;66.73;100865.69;5111536;27;66057;-42
2023/05/21 03:22:24;;;;;;;9.10;8.07;;;;;;;33.22;66.70;100873.13;5105906;27;70882;-42
2023/05/21 03:24:57;;;;;;;8.77;8.05;;;;;;;33.23;66.60;100862.00;5083053;27;66025;-41
2023/05/21 03:27:47;;;;;;;8.33;7.63;;;;;;;33.25;66.35;100850.91;5094869;27;70730;-41
2023/05/21 03:30:40;;;;;;;10.07;8.05;;;;;;;33.27;66.49;100836.00;5086808;27;65352;-42
2023/05/21 03:33:32;;;;;;;10.55;7.50;;;;;;;33.28;66.10;100836.84;5100149;27;70167;-42
2023/05/21 03:36:14;;;;;;;8.35;7.75;;;;;;;33.31;65.89;100826.31;5077830;27;66626;-42
2023/05/21 03:38:46;;;;;;;7.93;7.22;;;;;;;33.31;65.85;100817.31;5098296;27;69917;-42
2023/05/21 03:41:17;;;;;;;8.47;7.80;;;;;;;33.28;65.91;100805.03;5067779;27;67153;-42
2023/05/21 03:43:53;;;;;;;7.95;7.13;;;;;;;33.38;65.56;100796.28;5059338;28;69902;-42
2023/05/21 03:46:28;;;;;;;7.78;7.07;;;;;;;33.38;65.69;100794.38;5058973;28;65766;-42
2023/05/21 03:49:22;;;;;;;8.73;7.88;;;;;;;33.40;65.50;100801.47;5060360;28;70015;-42
2023/05/21 03:51:55;;;;;;;8.38;7.68;;;;;;;33.40;65.25;100798.75;5062269;28;66647;-42
2023/05/21 03:54:27;;;;;;;10.88;8.38;;;;;;;33.34;65.43;100792.38;5070087;28;70124;-41
2023/05/21 03:57:03;;;;;;;9.15;8.35;;;;;;;33.43;66.12;100817.31;5045684;28;65361;-41
2023/05/21 03:59:36;;;;;;;9.65;8.15;;;;;;;33.41;65.31;100819.47;5075701;27;70568;-42
2023/05/21 04:02:06;;;;;;;9.70;8.05;;;;;;;33.24;65.54;100790.28;5043903;28;66572;-42
2023/05/21 04:04:38;;;;;;;8.70;7.93;;;;;;;33.41;65.47;100808.59;5074210;28;69959;-43
2023/05/21 04:07:13;;;;;;;8.60;7.88;;;;;;;33.40;65.52;100812.34;5058536;27;65450;-42
2023/05/21 04:09:45;;;;;;;14.02;8.20;;;;;;;33.43;65.44;100818.13;5081583;28;69838;-42
2023/05/21 04:12:17;;;;;;;;;;;;;;;33.11;66.64;100829.41;5053947;28;65463;-41
2023/05/21 04:14:50;;;;;;;8.75;7.68;;;;;;;33.38;65.39;100816.13;5074152;28;69199;-42
2023/05/21 04:17:21;;;;;;;9.15;8.35;;;;;;;33.43;65.29;100806.44;5058596;28;66433;-42
2023/05/21 04:19:53;;;;;;;10.40;8.95;;;;;;;33.39;65.48;100795.22;5089943;27;70845;-42
2023/05/21 04:22:25;;;;;;;7.88;7.28;;;;;;;33.37;65.03;100781.84;5075581;27;66538;-42
2023/05/21 04:24:58;;;;;;;7.88;7.25;;;;;;;33.43;65.03;100788.22;5076931;28;69780;-42
2023/05/21 04:27:37;;;;;;;7.97;7.00;;;;;;;33.42;65.03;100792.00;5070929;27;65249;-42
2023/05/21 04:30:09;;;;;;;8.68;7.40;;;;;;;33.42;64.88;100819.19;5079892;27;70501;-42
2023/05/21 04:32:46;;;;;;;10.27;7.95;;;;;;;33.43;65.17;100860.81;5064955;28;65233;-42
2023/05/21 04:35:18;;;;;;;11.63;8.23;;;;;;;33.41;64.77;100877.38;5063163;28;69816;-42
2023/05/21 04:37:49;;;;;;;10.60;7.80;;;;;;;33.40;65.26;100883.03;5082908;27;65955;-42
2023/05/21 04:40:23;;;;;;;7.05;6.55;;;;;;;33.37;64.96;100868.03;5069470;27;69074;-41
2023/05/21 04:42:55;;;;;;;9.07;7.82;;;;;;;33.36;64.68;100891.69;5082625;27;65122;-42
2023/05/21 04:45:28;;;;;;;8.35;7.28;;;;;;;33.36;64.80;100899.00;5094868;27;70524;-41
2023/05/21 04:48:01;;;;;;;9.60;7.63;;;;;;;33.37;64.89;100903.38;5087384;27;66746;-42
2023/05/21 04:50:33;;;;;;;7.75;6.18;;;;;;;33.34;65.01;100901.13;5077640;27;69868;-42
2023/05/21 04:53:06;;;;;;;9.07;5.80;;;;;;;33.35;64.88;100911.78;5101136;27;65422;-42
2023/05/21 04:55:38;;;;;;;7.35;5.97;;;;;;;33.29;65.13;100907.28;5102203;27;69200;-42
2023/05/21 04:58:12;;;;;;;8.52;4.80;;;;;;;33.32;65.16;100950.31;5099972;27;66083;-42
2023/05/21 05:00:45;;;;;;;7.88;5.15;;;;;;;33.31;65.23;100948.66;5080952;27;69380;-41
2023/05/21 05:03:16;;;;;;;5.18;4.68;;;;;;;33.27;65.33;100961.06;5082505;27;65623;-41
2023/05/21 05:05:48;;;;;;;5.07;4.57;;;;;;;33.12;65.40;100933.50;5074929;27;70175;-42
2023/05/21 05:08:19;;;;;;;4.23;3.93;;;;;;;33.24;65.57;100939.78;5083489;27;66203;-42
2023/05/21 05:10:50;;;;;;;9.38;3.85;;;;;;;33.11;65.49;100907.41;5098195;27;70051;-41
2023/05/21 05:13:21;;;;;;;4.20;3.87;;;;;;;33.21;65.84;100906.78;5099758;27;66852;-41
2023/05/21 05:15:52;;;;;;;7.38;3.47;;;;;;;33.20;65.85;100911.41;5087660;27;70328;-43
2023/05/21 05:18:23;;;;;;;6.60;3.80;;;;;;;33.19;65.65;100907.03;5099675;27;65652;-42
2023/05/21 05:20:55;;;;;;;;;;;;;;;32.87;67.13;100904.59;5096791;27;70470;-41
2023/05/21 05:23:26;;;;;;;6.20;3.95;;;;;;;33.13;66.17;100916.16;5093296;27;66148;-41
2023/05/21 05:25:57;;;;;;;;;;;;;;;32.83;67.31;100925.16;5074330;27;70070;-42
2023/05/21 05:28:28;;;;;;;13.00;5.07;;;;;;;32.85;68.70;100936.63;5068776;27;66911;-41
2023/05/21 05:31:00;;;;;;;18.17;4.97;;;;;;;32.79;69.31;100964.72;5083494;27;70460;-42
2023/05/21 05:33:33;;;;;;;13.38;5.78;;;;;;;32.62;68.31;100980.00;5097168;27;65636;-42
2023/05/21 05:36:04;;;;;;;13.57;5.43;;;;;;;32.40;66.69;100988.63;5077727;27;69893;-44
2023/05/21 05:38:35;;;;;;;12.48;4.60;;;;;;;32.21;64.59;100989.69;5090295;27;65552;-43
2023/05/21 05:41:13;;;;;;;15.85;4.70;;;;;;;32.03;63.24;100993.22;5107734;27;70134;-43
2023/05/21 05:43:45;;;;;;;14.40;4.18;;;;;;;31.90;61.70;100972.47;5086867;27;65977;-42
2023/05/21 05:46:19;;;;;;;11.50;4.03;;;;;;;31.63;60.87;100943.97;5078679;27;70314;-44
2023/05/21 05:48:53;;;;;;;12.77;4.57;;;;;;;31.64;59.65;100961.88;5081007;27;65817;-42
2023/05/21 05:51:24;;;;;;;8.18;3.70;;;;;;;31.52;58.91;100959.09;5096517;27;69237;-41
2023/05/21 05:53:56;;;;;;;13.48;4.22;;;;;;;31.46;59.19;100932.88;5067900;27;66317;-43
2023/05/21 05:56:28;;;;;;;15.23;4.03;;;;;;;31.26;58.50;100911.31;5062227;27;69311;-42
2023/05/21 05:58:59;;;;;;;15.63;3.95;;;;;;;31.27;58.09;100921.13;5092196;27;65288;-41
2023/05/21 06:01:31;;;;;;;15.25;3.85;;;;;;;31.07;57.87;100886.91;5078455;27;69470;-42
2023/05/21 06:04:02;;;;;;;13.10;3.67;;;;;;;31.10;57.29;100900.00;5090698;27;66722;-42
2023/05/21 06:06:35;;;;;;;18.85;3.33;;;;;;;31.02;56.67;100900.28;5086634;27;69932;-41
2023/05/21 06:09:06;;;;;;;15.00;3.67;;;;;;;30.96;55.73;100895.75;5101109;27;66104;-40
2023/05/21 06:11:37;;;;;;;6.40;3.50;;;;;;;30.78;54.76;100887.50;5114712;27;69192;-41
2023/05/21 06:14:08;;;;;;;6.97;3.50;;;;;;;30.79;53.74;100910.84;5101185;27;66520;-40
2023/05/21 06:16:40;;;;;;;9.88;3.08;;;;;;;30.73;54.01;100937.75;5054676;28;69439;-41
2023/05/21 06:19:11;;;;;;;20.80;3.47;;;;;;;30.66;53.27;100918.00;5084190;27;67527;-40
2023/05/21 06:21:42;;;;;;;;;;;;;;;30.34;53.26;100900.06;5106427;27;70370;-40
2023/05/21 06:24:13;;;;;;;7.97;2.90;;;;;;;30.54;52.60;100892.69;5085534;27;65841;-41
2023/05/21 06:26:45;;;;;;;4.03;2.83;;;;;;;30.47;52.24;100875.63;5099190;27;70052;-40
2023/05/21 06:29:16;;;;;;;7.93;3.10;;;;;;;30.49;51.71;100881.66;5081937;27;64454;-41
2023/05/21 06:31:48;;;;;;;4.45;2.63;;;;;;;30.38;51.22;100876.94;5096621;27;69607;-41
2023/05/21 06:34:21;;;;;;;4.55;3.10;;;;;;;30.38;51.07;100882.34;5084224;27;66233;-41
2023/05/21 06:36:54;;;;;;;4.65;2.95;;;;;;;30.34;50.55;100876.56;5094645;27;68910;-40
2023/05/21 06:39:26;;;;;;;5.68;2.70;;;;;;;30.28;50.94;100883.66;5057999;27;66577;-40
2023/05/21 06:41:58;;;;;;;5.70;2.95;;;;;;;30.26;50.70;100879.50;5092576;27;69970;-39
2023/05/21 06:44:53;;;;;;;13.73;3.53;;;;;;;30.01;50.81;100836.13;5074495;28;65295;-39
2023/05/21 06:47:32;;;;;;;5.55;3.17;;;;;;;30.19;50.11;100862.44;5085567;27;69986;-41
2023/05/21 06:50:06;;;;;;;2.92;2.70;;;;;;;30.13;50.12;100866.84;5090096;27;66149;-41
2023/05/21 06:53:01;;;;;;;3.28;2.97;;;;;;;29.99;50.09;100851.72;5090215;27;69353;-43
2023/05/21 06:55:32;;;;;;;3.92;3.15;;;;;;;30.10;50.09;100869.16;5100625;27;66632;-42
2023/05/21 06:58:18;;;;;;;7.72;3.50;;;;;;;30.04;50.15;100868.13;5090894;27;70117;-42
2023/05/21 07:00:49;;;;;;;3.88;3.58;;;;;;;30.05;50.00;100861.66;5110295;27;66256;-41
2023/05/21 07:03:23;;;;;;;3.33;3.03;;;;;;;30.00;49.16;100848.78;5097479;27;70564;-42
2023/05/21 07:05:54;;;;;;;3.63;3.40;;;;;;;29.99;49.23;100851.72;5091237;27;65408;-41
2023/05/21 07:08:26;;;;;;;3.13;2.92;;;;;;;29.98;49.00;100847.38;5098726;27;69944;-41
2023/05/21 07:10:57;;;;;;;;;;;;;;;29.75;49.68;100851.38;5096356;27;66133;-41
2023/05/21 07:13:29;;;;;;;2.75;2.55;;;;;;;29.83;48.85;100826.81;5074944;27;68089;-41
2023/05/21 07:16:00;;;;;;;3.67;3.38;;;;;;;29.91;49.34;100835.75;5089043;27;65921;-42
2023/05/21 07:18:36;;;;;;;3.60;3.30;;;;;;;29.86;48.71;100830.13;5101811;27;69789;-41
2023/05/21 07:21:07;;;;;;;9.67;3.20;;;;;;;29.97;50.88;100833.00;5077542;28;65233;-43
2023/05/21 07:23:39;;;;;;;3.65;3.45;;;;;;;30.12;54.51;100846.25;5097577;27;70096;-46
2023/05/21 07:26:11;;;;;;;11.37;4.90;;;;;;;30.32;60.49;100856.16;5112282;27;65499;-42
2023/05/21 07:28:43;;;;;;;7.30;5.25;;;;;;;30.42;63.73;100851.94;5082586;27;69699;-43
2023/05/21 07:31:14;;;;;;;6.88;5.60;;;;;;;30.61;64.23;100866.38;5096652;27;66661;-42
2023/05/21 07:33:49;;;;;;;11.02;5.93;;;;;;;30.71;65.03;100877.56;5109535;27;70211;-43
2023/05/21 07:36:25;;;;;;;9.63;5.55;;;;;;;30.78;66.13;100877.50;5091602;27;65699;-42
2023/05/21 07:38:56;;;;;;;5.97;5.32;;;;;;;30.85;66.39;100880.19;5098809;27;69991;-43
2023/05/21 07:41:30;;;;;;;5.90;5.47;;;;;;;30.89;67.38;100879.53;5098922;27;66595;-42
2023/05/21 07:44:04;;;;;;;10.68;6.10;;;;;;;30.96;67.77;100873.25;5119142;27;69189;-42
2023/05/21 07:46:42;;;;;;;6.47;5.90;;;;;;;30.96;68.33;100860.53;5100218;27;66833;-44
2023/05/21 07:49:15;;;;;;;6.25;5.75;;;;;;;31.04;68.67;100873.78;5077902;27;70105;-43
2023/05/21 07:51:49;;;;;;;7.38;6.20;;;;;;;31.07;68.73;100862.50;5096433;27;65832;-43
2023/05/21 07:54:21;;;;;;;7.60;5.47;;;;;;;31.06;68.96;100858.13;5098485;27;69732;-45
2023/05/21 07:56:55;;;;;;;6.20;5.60;;;;;;;31.14;69.43;100855.13;5090167;27;66233;-41
2023/05/21 07:59:49;;;;;;;8.60;5.70;;;;;;;31.14;69.57;100838.88;5071591;27;70100;-42
2023/05/21 08:02:21;;;;;;;6.03;5.50;;;;;;;31.09;69.71;100813.50;5097988;27;65862;-42
2023/05/21 08:04:53;;;;;;;7.13;5.72;;;;;;;31.15;69.72;100813.47;5101834;27;70097;-49
2023/05/21 08:07:26;;;;;;;16.77;6.90;;;;;;;31.20;70.12;100809.22;5110946;27;66381;-43
2023/05/21 08:09:58;;;;;;;6.88;6.15;;;;;;;31.20;69.65;100793.78;5095897;27;69930;-42
2023/05/21 08:12:33;;;;;;;6.50;5.90;;;;;;;31.16;69.65;100782.59;5061226;28;65944;-43
2023/05/21 08:15:06;;;;;;;8.32;5.68;;;;;;;31.20;70.04;100776.72;5081150;27;70278;-42
2023/05/21 08:17:42;;;;;;;6.43;5.55;;;;;;;31.25;70.13;100785.00;5119880;27;65949;-42
2023/05/21 08:20:15;;;;;;;6.57;5.78;;;;;;;31.27;70.55;100782.91;5086213;27;70383;-43
2023/05/21 08:22:47;;;;;;;8.98;6.10;;;;;;;31.24;70.76;100786.06;5102572;27;66418;-43
2023/05/21 08:25:18;;;;;;;7.35;6.22;;;;;;;31.24;70.54;100788.78;5095454;27;70286;-43
2023/05/21 08:27:51;;;;;;;7.05;6.35;;;;;;;31.16;70.52;100771.75;5115048;27;66115;-42
2023/05/21 08:30:23;;;;;;;7.72;6.15;;;;;;;31.24;70.69;100786.06;5097986;27;69643;-43
2023/05/21 08:32:54;;;;;;;8.35;5.82;;;;;;;31.27;70.52;100789.16;5078893;27;66932;-43
2023/05/21 08:35:27;;;;;;;6.93;6.18;;;;;;;31.21;70.83;100784.63;5110662;27;69748;-42
2023/05/21 08:38:05;;;;;;;10.45;6.68;;;;;;;31.24;70.71;100783.34;5076553;27;66564;-44
2023/05/21 08:40:55;;;;;;;7.13;5.40;;;;;;;31.24;71.28;100781.47;5097181;27;69747;-42
2023/05/21 08:43:30;;;;;;;6.03;5.63;;;;;;;31.31;71.02;100789.50;5111627;27;65631;-43
2023/05/21 08:46:04;;;;;;;6.18;5.55;;;;;;;31.30;71.00;100782.44;5096403;27;70045;-42
2023/05/21 08:48:38;;;;;;;6.03;5.53;;;;;;;31.27;71.13;100777.47;5075791;27;66629;-42
2023/05/21 08:51:10;;;;;;;6.07;5.57;;;;;;;31.30;71.62;100777.84;5096628;27;69294;-42
2023/05/21 08:53:50;;;;;;;6.93;6.38;;;;;;;31.32;71.16;100785.78;5076733;27;66317;-43
2023/05/21 08:56:23;;;;;;;6.97;6.35;;;;;;;31.09;71.41;100743.06;5094780;27;70387;-43
2023/05/21 08:58:58;;;;;;;6.88;6.28;;;;;;;30.89;71.44;100716.19;5097410;27;66253;-43
2023/05/21 09:01:37;;;;;;;8.68;5.78;;;;;;;31.34;71.63;100779.06;5090988;27;70148;-42
2023/05/21 09:04:27;;;;;;;6.72;6.13;;;;;;;31.30;71.30;100766.19;5096012;27;66974;-43
2023/05/21 09:07:01;;;;;;;5.93;5.40;;;;;;;31.33;71.66;100765.72;5095689;27;69031;-42
2023/05/21 09:10:07;;;;;;;6.47;5.97;;;;;;;31.32;71.48;100764.91;5095187;27;67058;-44
2023/05/21 09:12:39;;;;;;;6.20;5.68;;;;;;;31.24;71.49;100734.56;5094318;27;70409;-43
2023/05/21 09:15:11;;;;;;;6.45;5.93;;;;;;;31.33;71.37;100752.19;5095395;27;66136;-43
2023/05/21 09:17:47;;;;;;;10.50;6.00;;;;;;;31.35;71.47;100745.47;5096062;27;69100;-44
2023/05/21 09:20:36;;;;;;;10.88;6.55;;;;;;;31.33;71.23;100733.22;5092586;27;66137;-43
2023/05/21 09:23:15;;;;;;;8.98;5.93;;;;;;;31.34;71.52;100727.56;5111355;27;70147;-43
2023/05/21 09:25:48;;;;;;;6.93;6.32;;;;;;;31.36;71.31;100733.59;5095143;27;65860;-42
2023/05/21 09:28:29;;;;;;;6.18;5.63;;;;;;;31.35;71.28;100745.47;5113447;27;69822;-43
2023/05/21 09:31:09;;;;;;;6.40;5.80;;;;;;;31.37;71.66;100732.56;5097423;27;66496;-42
2023/05/21 09:33:50;;;;;;;7.10;5.90;;;;;;;31.31;71.20;100727.19;5095998;27;69282;-43
2023/05/21 09:36:22;;;;;;;7.70;5.50;;;;;;;31.37;71.36;100734.44;5093287;27;66362;-43
2023/05/21 09:38:56;;;;;;;6.07;5.47;;;;;;;31.36;71.22;100721.94;5097748;27;70220;-42
2023/05/21 09:41:37;;;;;;;6.30;5.70;;;;;;;31.34;71.29;100724.00;5097443;27;65842;-42
2023/05/21 09:44:10;;;;;;;7.15;5.72;;;;;;;31.37;70.90;100719.03;5092344;27;69770;-42
2023/05/21 09:46:41;;;;;;;6.40;5.45;;;;;;;31.36;71.19;100721.94;5094495;27;66594;-44
2023/05/21 09:49:23;;;;;;;5.90;5.40;;;;;;;31.30;71.02;100714.69;5088077;27;70383;-43
2023/05/21 09:51:56;;;;;;;7.55;5.97;;;;;;;31.36;71.14;100716.53;5096467;27;66383;-43
2023/05/21 09:54:32;;;;;;;6.88;5.82;;;;;;;31.38;71.01;100725.25;5092636;27;70272;-42
2023/05/21 09:57:03;;;;;;;5.90;5.50;;;;;;;31.28;71.29;100708.66;5096479;27;65926;-42
2023/05/21 09:59:41;;;;;;;6.70;6.22;;;;;;;31.33;71.20;100716.94;5091542;27;69741;-42
2023/05/21 10:02:20;;;;;;;8.32;7.20;;;;;;;31.41;71.69;100732.94;5094615;27;65084;-42
2023/05/21 10:04:55;;;;;;;13.07;7.10;;;;;;;31.37;71.58;100729.00;5094101;27;70175;-43
2023/05/21 10:07:27;;;;;;;7.55;7.05;;;;;;;31.36;72.13;100735.50;5096371;27;65652;-42
2023/05/21 10:10:02;;;;;;;10.02;7.85;;;;;;;31.23;72.29;100716.66;5087169;27;69642;-42
2023/05/21 10:12:34;;;;;;;5.55;5.15;;;;;;;31.32;70.75;100732.38;5086968;27;66283;-43
2023/05/21 10:15:10;;;;;;;4.78;4.32;;;;;;;30.88;70.90;100655.78;5097483;27;69118;-43
2023/05/21 10:17:44;;;;;;;6.03;4.95;;;;;;;31.44;70.85;100740.59;5098425;27;65895;-43
2023/05/21 10:20:16;;;;;;;5.28;4.88;;;;;;;31.37;70.52;100723.59;5096968;27;70129;-42
2023/05/21 10:22:49;;;;;;;5.70;4.50;;;;;;;31.48;70.14;100752.66;5096156;27;65693;-43
2023/05/21 10:25:21;;;;;;;4.65;4.30;;;;;;;31.52;70.42;100759.28;5096201;27;70382;-42
2023/05/21 10:27:55;;;;;;;5.47;4.97;;;;;;;31.52;70.21;100758.47;5094409;27;66308;-42
2023/05/21 10:30:26;;;;;;;4.82;4.50;;;;;;;31.56;70.00;100760.47;5096936;27;70059;-42
2023/05/21 10:32:58;;;;;;;5.43;5.00;;;;;;;31.60;69.96;100767.09;5092329;27;66141;-43
2023/05/21 10:35:31;;;;;;;5.13;4.78;;;;;;;31.61;69.71;100776.88;5087922;27;70124;-42
2023/05/21 10:38:04;;;;;;;4.82;4.53;;;;;;;31.08;69.69;100688.06;5098199;27;66260;-43
2023/05/21 10:40:35;;;;;;;7.82;6.88;;;;;;;31.59;70.10;100770.88;5087968;27;70421;-42
2023/05/21 10:43:38;;;;;;;15.15;7.00;;;;;;;31.54;70.15;100775.34;5110365;27;65500;-42
2023/05/21 10:46:31;;;;;;;;;;;;;;;31.33;70.35;100793.66;5101375;27;70510;-41
2023/05/21 10:49:32;;;;;;;6.97;6.47;;;;;;;31.36;70.05;100789.72;5097316;27;64601;-41
2023/05/21 10:52:31;;;;;;;7.35;6.70;;;;;;;31.05;70.20;100753.53;5098093;27;70168;-42
2023/05/21 10:55:19;;;;;;;7.63;7.00;;;;;;;31.27;70.36;100799.16;5106610;27;65656;-41
2023/05/21 10:57:53;;;;;;;7.65;6.90;;;;;;;31.30;70.50;100804.13;5099146;27;69351;-41
2023/05/21 11:00:26;;;;;;;7.38;6.68;;;;;;;30.76;70.46;100732.53;5099259;27;65088;-41
2023/05/21 11:03:00;;;;;;;8.07;7.22;;;;;;;30.69;70.54;100725.31;5096851;27;69865;-41
2023/05/21 11:06:05;;;;;;;7.30;6.80;;;;;;;30.69;70.51;100733.44;5101186;27;66130;-41
2023/05/21 11:08:37;;;;;;;12.70;11.80;;;;;;;31.19;70.32;100826.56;5099804;27;70195;-42
2023/05/21 11:11:08;;;;;;;;;;;;;;;31.02;71.03;100829.84;5099325;27;66726;-41
2023/05/21 11:13:48;;;;;;;8.90;7.47;;;;;;;31.06;70.40;100836.44;5104162;27;71131;-41
2023/05/21 11:16:24;;;;;;;7.72;7.20;;;;;;;31.10;70.28;100843.09;5099212;27;65902;-42
2023/05/21 11:18:59;;;;;;;9.60;7.63;;;;;;;31.11;70.53;100861.00;5088249;27;70429;-42
2023/05/21 11:21:32;;;;;;;8.07;7.30;;;;;;;31.09;70.49;100852.28;5102082;27;66320;-41
2023/05/21 11:24:07;;;;;;;7.47;6.78;;;;;;;30.45;70.10;100755.91;5101562;27;70192;-42
2023/05/21 11:26:47;;;;;;;9.70;7.47;;;;;;;31.04;70.29;100854.84;5093073;27;66044;-41
2023/05/21 11:29:19;;;;;;;7.57;7.00;;;;;;;31.03;70.53;100861.28;5100153;27;68906;-41
2023/05/21 11:32:04;;;;;;;7.90;7.43;;;;;;;30.49;69.87;100776.91;5086727;27;66059;-41
2023/05/21 11:34:44;;;;;;;7.95;7.55;;;;;;;31.02;70.08;100867.75;5092650;27;69264;-42
2023/05/21 11:37:28;;;;;;;8.50;7.90;;;;;;;31.01;70.26;100871.53;5098175;27;66875;-41
2023/05/21 11:40:27;;;;;;;8.50;7.70;;;;;;;30.76;70.05;100847.13;5098768;27;69182;-41
2023/05/21 11:42:57;;;;;;;8.80;8.10;;;;;;;30.93;70.12;100871.81;5100927;27;64918;-41
2023/05/21 11:45:31;;;;;;;9.43;8.43;;;;;;;29.98;70.43;100726.47;5096560;27;69080;-42
2023/05/21 11:48:04;;;;;;;17.02;8.38;;;;;;;30.99;70.29;100884.47;5097424;27;66533;-42
2023/05/21 11:50:36;;;;;;;10.38;9.43;;;;;;;30.94;69.93;100887.00;5083598;28;69303;-42
2023/05/21 11:53:07;;;;;;;;;;;;;;;30.83;70.44;100885.00;5091447;27;66400;-42
2023/05/21 11:55:46;;;;;;;10.35;9.32;;;;;;;30.88;70.11;100887.88;5107658;27;70020;-42